Maersk Gateshead — OWNT2 — position and weather

sailwx.info

Track history (hours):
 
Tides and Currents Weather Stations Pressure Air Temp Water Temp Dewpoint Dewpoint Depression Visibility Wind Speed Wind Dir Waves Ship Positions

Maersk Gateshead

Last reported at 2018-May-11 19:15 UTC. Time now 2018-May-24 21:07 UTC.
Position N 09°13' W 079°55'.
Warning: this ship's position is 13 days out of date.

Length 292 m; draft 11.9 m.

Type: Ship (hazmat cat A). MMSI: 219587000.

Date/timePositionNaut miles runAvg speedWind from/ knotsBaromVisibWave heightAir tempDewpointWater temp
2018-May-11 19:15N 09°13' W 079°55'2 8.8
2018-May-11 18:59N 09°15' W 079°55'1 2.6
2018-May-11 18:29N 09°16' W 079°55'0 0.4
2018-May-11 18:00N 09°16' W 079°55'0 0.4
2018-May-11 17:29N 09°17' W 079°55'0 0.4
2018-May-11 16:59N 09°17' W 079°55'0 0.2
2018-May-11 16:29N 09°17' W 079°55'0 0.7
2018-May-11 15:59N 09°17' W 079°55'0 0.0
2018-May-11 15:30N 09°17' W 079°55'1 2.4
2018-May-11 15:00N 09°19' W 079°55'2 4.4
2018-May-11 14:30N 09°21' W 079°55'3 5.2
2018-May-11 14:00N 09°23' W 079°55'4 7.9
2018-May-11 13:30N 09°27' W 079°55'4 8.5
2018-May-11 13:00N 09°31' W 079°55'1 1.6
2018-May-11 12:29N 09°31' W 079°55'1 2.0
2018-May-11 12:00N 09°30' W 079°55'1 1.1
2018-May-11 11:30N 09°30' W 079°55'1 1.0
2018-May-11 11:00N 09°31' W 079°55'2 4.2
2018-May-11 10:30N 09°32' W 079°54'611.6
2018-May-11 09:57N 09°38' W 079°51'  
2018-May-05 03:21N 34°12' W 077°57'0 1.1
2018-May-05 03:00N 34°13' W 077°57'1 0.1
2018-May-04 11:00N 34°11' W 077°57'  
Track history (hours):
 
Tides and Currents Weather Stations Pressure Air Temp Water Temp Dewpoint Dewpoint Depression Visibility Wind Speed Wind Dir Waves Ship Positions

Maersk Gateshead

Last reported at 2018-May-11 19:15 UTC. Time now 2018-May-24 21:07 UTC.
Position N 09°13' W 079°55'.
Warning: this ship's position is 13 days out of date.

Length 292 m; draft 11.9 m.

Type: Ship (hazmat cat A). MMSI: 219587000.

Date/timePositionNaut miles runAvg speedWind from/ knotsBaromVisibWave heightAir tempDewpointWater temp
2018-May-11 19:15N 09°13' W 079°55'2 8.8
2018-May-11 18:59N 09°15' W 079°55'1 2.6
2018-May-11 18:29N 09°16' W 079°55'0 0.4
2018-May-11 18:00N 09°16' W 079°55'0 0.4
2018-May-11 17:29N 09°17' W 079°55'0 0.4
2018-May-11 16:59N 09°17' W 079°55'0 0.2
2018-May-11 16:29N 09°17' W 079°55'0 0.7
2018-May-11 15:59N 09°17' W 079°55'0 0.0
2018-May-11 15:30N 09°17' W 079°55'1 2.4
2018-May-11 15:00N 09°19' W 079°55'2 4.4
2018-May-11 14:30N 09°21' W 079°55'3 5.2
2018-May-11 14:00N 09°23' W 079°55'4 7.9
2018-May-11 13:30N 09°27' W 079°55'4 8.5
2018-May-11 13:00N 09°31' W 079°55'1 1.6
2018-May-11 12:29N 09°31' W 079°55'1 2.0
2018-May-11 12:00N 09°30' W 079°55'1 1.1
2018-May-11 11:30N 09°30' W 079°55'1 1.0
2018-May-11 11:00N 09°31' W 079°55'2 4.2
2018-May-11 10:30N 09°32' W 079°54'611.6
2018-May-11 09:57N 09°38' W 079°51'  
2018-May-05 03:21N 34°12' W 077°57'0 1.1
2018-May-05 03:00N 34°13' W 077°57'1 0.1
2018-May-04 11:00N 34°11' W 077°57'  

Dump ship's entire track history